Darstellungsparameter: Aktuell verwendete Einstellungen:
Skalierung der Graphiken ... ?
xyx+y,   Skalierungsfaktor:      Skalierung: Modus: x, Faktor: 1
Darstellungszeitraum ... ?
Vom - - bis: - -   Zeitraum: 26.02.2004 - 26.02.2004
Min/Max/Avg-Anzeige ... ?
Zeige MMA aktuell
Zeige MMA Monat
Zeige MMA alles
Zeige --A aktuell
Zeige --A Monat
Zeige --A alles
Keine MMA-Anzeige
MMA:
Keine MMA-Graphiken
MMA-Basis: 26.02.2004 - 26.02.2004
Quicknavigation für Darstellung... ?
Tage:      1T, 2T, 3T, 5T -1T -2T -3T -5T +1T +2T +3T +5T
Wochen: 1W, 2W, 3W -1W -2W -3W +1W +2W +3W
Monate: 1M, 3M, 6M -1M -3M -6M +1M +3M +6M
Jahre:    1J, 3J, 5J, 10J -1J -3J -5J -10J +1J +3J +5J +10J
Nutze für die Darstellung ... ?
Originaldaten oder Mittelwerte auf ...
Stundenbasis Tagesbasis Wochenbasis
Monatsbasis Jahresbasis      Datenbasis: Original-Daten
Darstellen als:
Statistik (Auto) Statistik J:M      Darstellung:
Zur Graphik,    zurück zur Übersicht aller Sensoren.
 
Tabellarische Datenbersicht: ?
 
Sensor: Nr:Datum:Temp:Feuchte:Taupunkt:
Aussen-T/F 1 26-02-2004 00:04:01 -0.1 C 79 % -3.3 C
2 26-02-2004 00:16:01 -0.1 C 79 % -3.3 C
3 26-02-2004 00:28:01 -0.1 C 80 % -3.13 C
4 26-02-2004 00:40:01 -0.1 C 80 % -3.13 C
5 26-02-2004 00:52:01 -0.1 C 80 % -3.13 C
6 26-02-2004 01:04:00 -0.1 C 80 % -3.13 C
7 26-02-2004 01:16:58 -0.1 C 79 % -3.3 C
8 26-02-2004 01:28:58 -0.1 C 79 % -3.3 C
9 26-02-2004 01:40:57 -0.2 C 79 % -3.39 C
10 26-02-2004 01:52:01 -0.2 C 79 % -3.39 C
11 26-02-2004 02:04:01 -0.3 C 78 % -3.66 C
12 26-02-2004 02:16:01 -0.3 C 77 % -3.83 C
13 26-02-2004 02:28:01 -0.4 C 77 % -3.93 C
14 26-02-2004 02:40:01 -0.6 C 76 % -4.3 C
15 26-02-2004 02:53:02 -0.7 C 76 % -4.4 C
16 26-02-2004 03:05:02 -1.1 C 76 % -4.78 C
17 26-02-2004 03:17:02 -1.3 C 76 % -4.98 C
18 26-02-2004 03:29:02 -1.4 C 76 % -5.07 C
19 26-02-2004 03:41:00 -1.5 C 77 % -5 C
20 26-02-2004 03:53:00 -1.6 C 77 % -5.1 C
21 26-02-2004 04:05:00 -1.9 C 76 % -5.56 C
22 26-02-2004 04:17:59 -2.1 C 76 % -5.75 C
23 26-02-2004 04:29:59 -2.1 C 77 % -5.58 C
24 26-02-2004 04:41:57 -1.8 C 77 % -5.29 C
25 26-02-2004 04:53:01 -1.7 C 77 % -5.19 C
Sensor: Nr:Datum:Temp:Feuchte:Taupunkt:
Aussen-T/F 26 26-02-2004 05:05:01 -1.6 C 76 % -5.27 C
27 26-02-2004 05:17:01 -1.6 C 76 % -5.27 C
28 26-02-2004 05:29:01 -1.6 C 76 % -5.27 C
29 26-02-2004 05:41:01 -1.5 C 76 % -5.17 C
30 26-02-2004 05:53:00 -1.6 C 76 % -5.27 C
31 26-02-2004 06:04:59 -1.6 C 76 % -5.27 C
32 26-02-2004 06:17:58 -1.7 C 76 % -5.36 C
33 26-02-2004 06:29:58 -1.7 C 76 % -5.36 C
34 26-02-2004 06:41:57 -1.7 C 76 % -5.36 C
35 26-02-2004 06:53:01 -1.9 C 75 % -5.73 C
36 26-02-2004 07:05:01 -2.1 C 75 % -5.93 C
37 26-02-2004 07:17:01 -2.5 C 74 % -6.49 C
38 26-02-2004 07:29:01 -2.6 C 74 % -6.58 C
39 26-02-2004 07:41:01 -2.6 C 75 % -6.41 C
40 26-02-2004 07:53:01 -2.3 C 75 % -6.12 C
41 26-02-2004 08:05:01 -2 C 74 % -6 C
42 26-02-2004 08:17:01 -1.8 C 71 % -6.35 C
43 26-02-2004 08:29:01 -1.9 C 70 % -6.63 C
44 26-02-2004 08:41:01 -2.1 C 70 % -6.83 C
45 26-02-2004 08:53:00 -2.2 C 70 % -6.92 C
46 26-02-2004 09:05:00 -2.4 C 71 % -6.93 C
47 26-02-2004 09:17:58 -2.2 C 69 % -7.11 C
48 26-02-2004 09:29:58 -2 C 68 % -7.11 C
49 26-02-2004 09:41:57 -1.9 C 68 % -7.01 C
50 26-02-2004 09:53:01 -1.7 C 68 % -6.82 C
Sensor: Nr:Datum:Temp:Feuchte:Taupunkt:
Aussen-T/F 51 26-02-2004 10:05:01 -1.4 C 68 % -6.53 C
52 26-02-2004 10:17:01 -1.1 C 67 % -6.44 C
53 26-02-2004 10:29:01 -1.1 C 66 % -6.63 C
54 26-02-2004 10:41:01 -0.9 C 64 % -6.84 C
55 26-02-2004 10:53:00 -0.6 C 60 % -7.39 C
56 26-02-2004 11:05:59 -0.4 C 60 % -7.2 C
57 26-02-2004 11:17:58 -0.3 C 60 % -7.11 C
58 26-02-2004 11:29:58 -0.1 C 57 % -7.58 C
59 26-02-2004 11:41:57 0.1 C 56 % -7.61 C
60 26-02-2004 11:53:01 0.1 C 53 % -8.32 C
61 26-02-2004 12:05:01 0.4 C 52 % -8.29 C
62 26-02-2004 12:17:01 0.4 C 52 % -8.29 C
63 26-02-2004 12:29:01 0.5 C 51 % -8.44 C
64 26-02-2004 12:41:00 1.1 C 50 % -8.14 C
65 26-02-2004 12:53:01 1.5 C 47 % -8.56 C
66 26-02-2004 13:05:01 1.7 C 45 % -8.93 C
67 26-02-2004 13:17:01 2 C 45 % -8.66 C
68 26-02-2004 13:29:01 2.2 C 45 % -8.48 C
69 26-02-2004 13:41:01 2.6 C 42 % -8.99 C
70 26-02-2004 13:53:00 2.7 C 44 % -8.31 C
71 26-02-2004 14:05:00 3.2 C 41 % -8.76 C
72 26-02-2004 14:17:58 3.3 C 42 % -8.36 C
73 26-02-2004 14:29:58 3.1 C 41 % -8.85 C
74 26-02-2004 14:41:57 3.3 C 41 % -8.67 C
75 26-02-2004 14:53:01 3.4 C 41 % -8.58 C
Sensor: Nr:Datum:Temp:Feuchte:Taupunkt:
Aussen-T/F 76 26-02-2004 15:05:01 3.4 C 40 % -8.89 C
77 26-02-2004 15:17:01 2.6 C 41 % -9.3 C
78 26-02-2004 15:29:01 2.4 C 43 % -8.88 C
79 26-02-2004 15:41:01 2.6 C 44 % -8.4 C
80 26-02-2004 15:53:01 2.6 C 45 % -8.11 C
81 26-02-2004 16:05:01 2.7 C 45 % -8.02 C
82 26-02-2004 16:17:01 2.1 C 46 % -8.29 C
83 26-02-2004 16:29:01 1.7 C 51 % -7.33 C
84 26-02-2004 16:41:01 1.5 C 52 % -7.27 C
85 26-02-2004 16:53:00 1.3 C 54 % -6.96 C
86 26-02-2004 17:05:00 1.1 C 60 % -5.78 C
87 26-02-2004 17:17:59 1.2 C 60 % -5.69 C
88 26-02-2004 17:29:59 1.2 C 61 % -5.47 C
89 26-02-2004 17:41:57 1.1 C 62 % -5.35 C
90 26-02-2004 17:53:01 1.1 C 63 % -5.14 C
91 26-02-2004 18:05:01 1.2 C 62 % -5.26 C
92 26-02-2004 18:17:01 0.7 C 67 % -4.71 C
93 26-02-2004 18:29:01 0.5 C 70 % -4.32 C
94 26-02-2004 18:41:01 0.5 C 68 % -4.71 C
95 26-02-2004 18:53:00 0.5 C 66 % -5.1 C
96 26-02-2004 19:04:59 0.6 C 63 % -5.61 C
97 26-02-2004 19:17:58 0.6 C 61 % -6.04 C
98 26-02-2004 19:29:58 0.7 C 60 % -6.16 C
99 26-02-2004 19:41:57 0.8 C 59 % -6.28 C
100 26-02-2004 19:53:01 0.8 C 58 % -6.5 C
Sensor: Nr:Datum:Temp:Feuchte:Taupunkt:
Aussen-T/F 101 26-02-2004 20:05:01 0.6 C 59 % -6.47 C
102 26-02-2004 20:17:01 0.5 C 60 % -6.35 C
103 26-02-2004 20:29:01 0.4 C 60 % -6.44 C
104 26-02-2004 20:41:01 0.2 C 61 % -6.41 C
105 26-02-2004 20:53:01 0 C 61 % -6.6 C
106 26-02-2004 21:05:01 -0.2 C 61 % -6.8 C
107 26-02-2004 21:17:01 -0.3 C 62 % -6.68 C
108 26-02-2004 21:29:01 -0.4 C 63 % -6.57 C
109 26-02-2004 21:41:01 -0.7 C 64 % -6.65 C
110 26-02-2004 21:53:00 -1 C 66 % -6.54 C
111 26-02-2004 22:05:00 -1.1 C 67 % -6.44 C
112 26-02-2004 22:17:58 -1.2 C 66 % -6.73 C
113 26-02-2004 22:29:58 -1.4 C 66 % -6.92 C
114 26-02-2004 22:41:57 -1.7 C 66 % -7.2 C
115 26-02-2004 22:53:01 -1.7 C 67 % -7.01 C
116 26-02-2004 23:05:01 -1.9 C 68 % -7.01 C
117 26-02-2004 23:17:01 -1.9 C 68 % -7.01 C
118 26-02-2004 23:29:01 -2 C 68 % -7.11 C
119 26-02-2004 23:41:01 -2.1 C 67 % -7.39 C
120 26-02-2004 23:53:00 -2.2 C 68 % -7.3 C

Legende:
   Min
   Max


Maximal/Minimal-Werte vom 26.02.2004 - 26.02.2004

Sensor Min Max Avg
Temp
(Aussen-T/F)
-2.6 °C
26-02-2004  07:29:01
3.4 °C
26-02-2004  14:53:01
-0.21 °C
Feuchte
(Aussen-T/F)
40 %
26-02-2004  15:05:01
80 %
26-02-2004  00:28:01
64.61 %
Taupunkt
(Aussen-T/F)
-9.3 C
26-02-2004  15:17:01
-3.13 C
26-02-2004  00:28:01
-6.25 C

Die Daten stammen von einer Davis Vantage Pro 2 Wetter-Station und werden unter Linux mit der Software wview2wettercgi und aufbereitet. Alle Angaben erfolgen ohne Gewähr für ihre Vollständigkeit oder Richtigkeit.
Kontakt: Rainer Krienke krienke@uni-koblenz.de . Meine Webseiten an der Uni Koblenz oder privat.
Version: $Revision: 0.78 $